sensor_id;sensor_type;location;lat;lon;timestamp;pressure;altitude;pressure_sealevel;temperature;humidity
27425;BME280;15244;49.088;11.886;2022-11-13T00:02:48;96931.97;;;8.50;57.71
27425;BME280;15244;49.088;11.886;2022-11-13T00:08:08;96919.84;;;8.48;57.31
27425;BME280;15244;49.088;11.886;2022-11-13T00:13:29;96923.56;;;8.43;57.09
27425;BME280;15244;49.088;11.886;2022-11-13T00:18:49;96924.25;;;8.40;57.08
27425;BME280;15244;49.088;11.886;2022-11-13T00:24:10;96926.06;;;8.36;56.93
27425;BME280;15244;49.088;11.886;2022-11-13T00:29:31;96924.69;;;8.30;56.62
27425;BME280;15244;49.088;11.886;2022-11-13T00:34:51;96911.78;;;8.27;56.65
27425;BME280;15244;49.088;11.886;2022-11-13T00:40:11;96898.88;;;8.23;56.96
27425;BME280;15244;49.088;11.886;2022-11-13T00:45:32;96909.97;;;8.18;56.78
27425;BME280;15244;49.088;11.886;2022-11-13T00:50:52;96907.59;;;8.17;56.66
27425;BME280;15244;49.088;11.886;2022-11-13T00:56:13;96910.19;;;8.13;56.59
27425;BME280;15244;49.088;11.886;2022-11-13T01:01:33;96896.69;;;8.04;56.46
27425;BME280;15244;49.088;11.886;2022-11-13T01:06:53;96898.41;;;7.97;56.45
27425;BME280;15244;49.088;11.886;2022-11-13T01:12:14;96894.66;;;7.89;55.90
27425;BME280;15244;49.088;11.886;2022-11-13T01:17:35;96888.97;;;7.82;56.23
27425;BME280;15244;49.088;11.886;2022-11-13T01:22:55;96868.94;;;7.74;55.97
27425;BME280;15244;49.088;11.886;2022-11-13T01:28:16;96867.69;;;7.72;56.09
27425;BME280;15244;49.088;11.886;2022-11-13T01:33:36;96860.59;;;7.67;55.18
27425;BME280;15244;49.088;11.886;2022-11-13T01:38:57;96858.88;;;7.63;55.55
27425;BME280;15244;49.088;11.886;2022-11-13T01:44:18;96855.56;;;7.57;55.19
27425;BME280;15244;49.088;11.886;2022-11-13T01:49:41;96842.22;;;7.52;54.72
27425;BME280;15244;49.088;11.886;2022-11-13T01:55:13;96834.16;;;7.43;54.95
27425;BME280;15244;49.088;11.886;2022-11-13T02:00:36;96826.25;;;7.38;54.88
27425;BME280;15244;49.088;11.886;2022-11-13T02:05:56;96810.97;;;7.33;54.73
27425;BME280;15244;49.088;11.886;2022-11-13T02:11:17;96812.91;;;7.33;54.77
27425;BME280;15244;49.088;11.886;2022-11-13T02:16:40;96802.38;;;7.31;54.77
27425;BME280;15244;49.088;11.886;2022-11-13T02:27:34;96791.88;;;7.30;54.76
27425;BME280;15244;49.088;11.886;2022-11-13T02:32:56;96783.72;;;7.30;55.10
27425;BME280;15244;49.088;11.886;2022-11-13T02:38:17;96781.03;;;7.30;54.88
27425;BME280;15244;49.088;11.886;2022-11-13T02:43:37;96786.44;;;7.30;54.87
27425;BME280;15244;49.088;11.886;2022-11-13T02:48:58;96782.34;;;7.24;54.37
27425;BME280;15244;49.088;11.886;2022-11-13T02:54:18;96769.34;;;7.17;53.76
27425;BME280;15244;49.088;11.886;2022-11-13T02:59:39;96766.19;;;7.15;54.03
27425;BME280;15244;49.088;11.886;2022-11-13T03:04:59;96751.38;;;7.12;54.06
27425;BME280;15244;49.088;11.886;2022-11-13T03:10:35;96752.06;;;7.09;54.19
27425;BME280;15244;49.088;11.886;2022-11-13T03:15:55;96758.25;;;7.10;54.84
27425;BME280;15244;49.088;11.886;2022-11-13T03:21:15;96750.22;;;7.13;54.85
27425;BME280;15244;49.088;11.886;2022-11-13T03:26:36;96744.16;;;7.16;55.07
27425;BME280;15244;49.088;11.886;2022-11-13T03:31:56;96739.16;;;7.19;54.83
27425;BME280;15244;49.088;11.886;2022-11-13T03:37:17;96740.78;;;7.20;55.01
27425;BME280;15244;49.088;11.886;2022-11-13T03:42:37;96741.56;;;7.20;54.79
27425;BME280;15244;49.088;11.886;2022-11-13T03:47:58;96730.38;;;7.22;54.98
27425;BME280;15244;49.088;11.886;2022-11-13T03:53:18;96718.41;;;7.23;54.99
27425;BME280;15244;49.088;11.886;2022-11-13T03:58:38;96709.13;;;7.24;54.96
27425;BME280;15244;49.088;11.886;2022-11-13T04:03:59;96707.66;;;7.26;55.05
27425;BME280;15244;49.088;11.886;2022-11-13T04:09:19;96703.03;;;7.27;55.12
27425;BME280;15244;49.088;11.886;2022-11-13T04:14:39;96692.63;;;7.29;55.08
27425;BME280;15244;49.088;11.886;2022-11-13T04:19:59;96682.22;;;7.31;55.15
27425;BME280;15244;49.088;11.886;2022-11-13T04:25:20;96665.63;;;7.32;54.99
27425;BME280;15244;49.088;11.886;2022-11-13T04:30:40;96667.66;;;7.35;55.36
27425;BME280;15244;49.088;11.886;2022-11-13T04:36:01;96664.25;;;7.38;55.42
27425;BME280;15244;49.088;11.886;2022-11-13T04:41:21;96657.81;;;7.43;55.42
27425;BME280;15244;49.088;11.886;2022-11-13T04:47:03;96663.34;;;7.47;55.04
27425;BME280;15244;49.088;11.886;2022-11-13T04:52:23;96666.97;;;7.51;55.12
27425;BME280;15244;49.088;11.886;2022-11-13T04:57:43;96656.56;;;7.53;55.26
27425;BME280;15244;49.088;11.886;2022-11-13T05:03:04;96645.72;;;7.53;55.33
27425;BME280;15244;49.088;11.886;2022-11-13T05:08:24;96641.63;;;7.47;55.27
27425;BME280;15244;49.088;11.886;2022-11-13T05:13:45;96635.88;;;7.48;55.99
27425;BME280;15244;49.088;11.886;2022-11-13T05:19:05;96632.16;;;7.53;55.87
27425;BME280;15244;49.088;11.886;2022-11-13T05:24:26;96629.53;;;7.56;55.59
27425;BME280;15244;49.088;11.886;2022-11-13T05:29:46;96617.56;;;7.57;54.97
27425;BME280;15244;49.088;11.886;2022-11-13T05:35:06;96619.91;;;7.59;55.23
27425;BME280;15244;49.088;11.886;2022-11-13T05:40:27;96623.41;;;7.59;55.31
27425;BME280;15244;49.088;11.886;2022-11-13T05:45:47;96623.78;;;7.58;55.58
27425;BME280;15244;49.088;11.886;2022-11-13T05:56:32;96603.41;;;7.52;55.35
27425;BME280;15244;49.088;11.886;2022-11-13T06:01:53;96600.28;;;7.50;55.20
27425;BME280;15244;49.088;11.886;2022-11-13T06:07:13;96609.53;;;7.49;54.61
27425;BME280;15244;49.088;11.886;2022-11-13T06:12:33;96618.03;;;7.47;54.72
27425;BME280;15244;49.088;11.886;2022-11-13T06:17:53;96600.50;;;7.45;54.48
27425;BME280;15244;49.088;11.886;2022-11-13T06:23:13;96607.41;;;7.42;54.58
27425;BME280;15244;49.088;11.886;2022-11-13T06:28:34;96607.75;;;7.41;54.43
27425;BME280;15244;49.088;11.886;2022-11-13T06:33:56;96604.25;;;7.40;54.94
27425;BME280;15244;49.088;11.886;2022-11-13T06:39:18;96594.50;;;7.39;54.55
27425;BME280;15244;49.088;11.886;2022-11-13T06:44:38;96596.66;;;7.33;54.58
27425;BME280;15244;49.088;11.886;2022-11-13T06:49:58;96591.59;;;7.32;54.73
27425;BME280;15244;49.088;11.886;2022-11-13T06:55:18;96592.47;;;7.36;55.24
27425;BME280;15244;49.088;11.886;2022-11-13T07:00:39;96577.44;;;7.38;55.44
27425;BME280;15244;49.088;11.886;2022-11-13T07:06:01;96560.06;;;7.40;55.00
27425;BME280;15244;49.088;11.886;2022-11-13T07:11:23;96558.22;;;7.44;55.49
27425;BME280;15244;49.088;11.886;2022-11-13T07:16:43;96562.72;;;7.52;55.20
27425;BME280;15244;49.088;11.886;2022-11-13T07:22:23;96555.94;;;7.58;55.13
27425;BME280;15244;49.088;11.886;2022-11-13T07:27:44;96539.84;;;7.65;55.57
27425;BME280;15244;49.088;11.886;2022-11-13T07:33:04;96538.47;;;7.71;55.36
27425;BME280;15244;49.088;11.886;2022-11-13T07:38:25;96533.25;;;7.78;55.53
27425;BME280;15244;49.088;11.886;2022-11-13T07:43:46;96519.09;;;7.85;55.44
27425;BME280;15244;49.088;11.886;2022-11-13T07:49:06;96507.72;;;7.95;55.43
27425;BME280;15244;49.088;11.886;2022-11-13T07:54:26;96512.22;;;8.03;55.46
27425;BME280;15244;49.088;11.886;2022-11-13T07:59:46;96504.34;;;8.14;55.61
27425;BME280;15244;49.088;11.886;2022-11-13T08:05:07;96490.16;;;8.21;55.81
27425;BME280;15244;49.088;11.886;2022-11-13T08:10:28;96486.47;;;8.29;56.02
27425;BME280;15244;49.088;11.886;2022-11-13T08:15:49;96486.66;;;8.36;55.76
27425;BME280;15244;49.088;11.886;2022-11-13T08:21:09;96479.94;;;8.46;55.92
27425;BME280;15244;49.088;11.886;2022-11-13T08:26:36;96468.00;;;8.51;55.88
27425;BME280;15244;49.088;11.886;2022-11-13T08:31:57;96462.06;;;8.61;55.98
27425;BME280;15244;49.088;11.886;2022-11-13T08:37:17;96466.59;;;8.73;56.14
27425;BME280;15244;49.088;11.886;2022-11-13T08:42:37;96474.72;;;8.88;56.41
27425;BME280;15244;49.088;11.886;2022-11-13T08:47:59;96473.03;;;9.00;56.47
27425;BME280;15244;49.088;11.886;2022-11-13T08:53:21;96484.25;;;9.14;56.50
27425;BME280;15244;49.088;11.886;2022-11-13T08:58:41;96496.56;;;9.27;56.11
27425;BME280;15244;49.088;11.886;2022-11-13T09:04:02;96497.22;;;9.40;56.06
27425;BME280;15244;49.088;11.886;2022-11-13T09:09:22;96497.09;;;9.52;56.12
27425;BME280;15244;49.088;11.886;2022-11-13T09:14:43;96506.63;;;9.62;55.55
27425;BME280;15244;49.088;11.886;2022-11-13T09:20:04;96509.56;;;9.73;55.78
27425;BME280;15244;49.088;11.886;2022-11-13T09:25:34;96515.66;;;9.86;55.35
27425;BME280;15244;49.088;11.886;2022-11-13T09:30:57;96513.47;;;9.95;55.57
27425;BME280;15244;49.088;11.886;2022-11-13T09:36:17;96502.81;;;10.06;55.10
27425;BME280;15244;49.088;11.886;2022-11-13T09:41:41;96504.56;;;10.17;55.15
27425;BME280;15244;49.088;11.886;2022-11-13T09:52:38;96493.69;;;10.40;54.72
27425;BME280;15244;49.088;11.886;2022-11-13T09:58:08;96483.78;;;10.52;54.98
27425;BME280;15244;49.088;11.886;2022-11-13T10:03:44;96476.97;;;10.65;54.62
27425;BME280;15244;49.088;11.886;2022-11-13T10:15:08;96454.38;;;10.91;54.85
27425;BME280;15244;49.088;11.886;2022-11-13T10:20:35;96459.22;;;11.01;55.05
27425;BME280;15244;49.088;11.886;2022-11-13T10:26:12;96454.38;;;11.18;54.85
27425;BME280;15244;49.088;11.886;2022-11-13T10:31:44;96446.00;;;11.34;54.55
27425;BME280;15244;49.088;11.886;2022-11-13T10:37:33;96437.63;;;11.49;54.56
27425;BME280;15244;49.088;11.886;2022-11-13T10:43:21;96423.34;;;11.63;54.41
27425;BME280;15244;49.088;11.886;2022-11-13T10:48:46;96407.13;;;11.78;54.75
27425;BME280;15244;49.088;11.886;2022-11-13T10:54:34;96391.69;;;11.92;54.51
27425;BME280;15244;49.088;11.886;2022-11-13T10:59:58;96375.41;;;12.07;54.30
27425;BME280;15244;49.088;11.886;2022-11-13T11:05:25;96364.19;;;12.19;53.92
27425;BME280;15244;49.088;11.886;2022-11-13T11:11:17;96347.09;;;12.33;54.29
27425;BME280;15244;49.088;11.886;2022-11-13T11:17:02;96343.69;;;12.47;54.11
27425;BME280;15244;49.088;11.886;2022-11-13T11:22:30;96341.84;;;12.62;54.13
27425;BME280;15244;49.088;11.886;2022-11-13T11:28:11;96322.75;;;12.76;54.29
27425;BME280;15244;49.088;11.886;2022-11-13T11:33:53;96325.19;;;12.92;54.19
27425;BME280;15244;49.088;11.886;2022-11-13T11:39:49;96303.34;;;13.06;53.82
27425;BME280;15244;49.088;11.886;2022-11-13T11:45:41;96304.19;;;13.21;53.63
27425;BME280;15244;49.088;11.886;2022-11-13T11:56:56;96297.63;;;13.43;52.98
27425;BME280;15244;49.088;11.886;2022-11-13T12:13:45;96279.66;;;13.71;52.61
27425;BME280;15244;49.088;11.886;2022-11-13T12:19:23;96272.63;;;13.81;52.66
27425;BME280;15244;49.088;11.886;2022-11-13T12:25:09;96266.38;;;13.91;52.50
27425;BME280;15244;49.088;11.886;2022-11-13T12:30:36;96256.97;;;13.99;52.33
27425;BME280;15244;49.088;11.886;2022-11-13T12:36:08;96256.56;;;14.08;52.12
27425;BME280;15244;49.088;11.886;2022-11-13T12:41:46;96241.25;;;14.18;52.08
27425;BME280;15244;49.088;11.886;2022-11-13T12:47:08;96248.31;;;14.26;51.63
27425;BME280;15244;49.088;11.886;2022-11-13T12:52:28;96237.72;;;14.35;51.41
27425;BME280;15244;49.088;11.886;2022-11-13T12:57:51;96234.94;;;14.42;51.39
27425;BME280;15244;49.088;11.886;2022-11-13T13:03:44;96231.03;;;14.47;51.26
27425;BME280;15244;49.088;11.886;2022-11-13T13:20:40;96206.28;;;14.65;50.61
27425;BME280;15244;49.088;11.886;2022-11-13T13:48:30;96187.00;;;14.86;49.38
27425;BME280;15244;49.088;11.886;2022-11-13T13:53:52;96175.97;;;14.93;49.26
27425;BME280;15244;49.088;11.886;2022-11-13T13:59:19;96170.44;;;15.01;49.14
27425;BME280;15244;49.088;11.886;2022-11-13T14:04:46;96175.13;;;15.04;48.90
27425;BME280;15244;49.088;11.886;2022-11-13T14:10:18;96168.41;;;15.08;48.59
27425;BME280;15244;49.088;11.886;2022-11-13T14:15:39;96178.59;;;15.11;48.49
27425;BME280;15244;49.088;11.886;2022-11-13T14:21:16;96175.06;;;15.14;48.14
27425;BME280;15244;49.088;11.886;2022-11-13T14:26:41;96160.16;;;15.15;47.91
27425;BME280;15244;49.088;11.886;2022-11-13T14:32:16;96158.94;;;15.16;47.82
27425;BME280;15244;49.088;11.886;2022-11-13T14:37:47;96163.66;;;15.16;47.60
27425;BME280;15244;49.088;11.886;2022-11-13T14:43:31;96171.13;;;15.15;47.52
27425;BME280;15244;49.088;11.886;2022-11-13T14:48:54;96160.97;;;15.12;47.14
27425;BME280;15244;49.088;11.886;2022-11-13T15:00:12;96145.72;;;15.04;46.31
27425;BME280;15244;49.088;11.886;2022-11-13T15:05:34;96135.16;;;14.99;46.14
27425;BME280;15244;49.088;11.886;2022-11-13T15:10:57;96132.84;;;14.90;46.08
27425;BME280;15244;49.088;11.886;2022-11-13T15:16:28;96132.91;;;14.80;45.59
27425;BME280;15244;49.088;11.886;2022-11-13T15:21:54;96134.56;;;14.63;45.43
27425;BME280;15244;49.088;11.886;2022-11-13T15:27:37;96144.84;;;14.41;45.19
27425;BME280;15244;49.088;11.886;2022-11-13T15:33:09;96142.16;;;14.19;45.34
27425;BME280;15244;49.088;11.886;2022-11-13T15:38:34;96144.59;;;13.96;45.28
27425;BME280;15244;49.088;11.886;2022-11-13T15:44:01;96145.78;;;13.77;45.45
27425;BME280;15244;49.088;11.886;2022-11-13T15:49:24;96141.88;;;13.56;45.52
27425;BME280;15244;49.088;11.886;2022-11-13T15:54:54;96143.09;;;13.37;45.80
27425;BME280;15244;49.088;11.886;2022-11-13T16:00:22;96135.22;;;13.18;45.82
27425;BME280;15244;49.088;11.886;2022-11-13T16:05:44;96138.31;;;12.91;45.90
27425;BME280;15244;49.088;11.886;2022-11-13T16:11:13;96140.19;;;12.62;46.27
27425;BME280;15244;49.088;11.886;2022-11-13T16:16:39;96135.41;;;12.38;46.37
27425;BME280;15244;49.088;11.886;2022-11-13T16:22:22;96132.66;;;12.23;46.54
27425;BME280;15244;49.088;11.886;2022-11-13T16:27:54;96141.94;;;12.08;46.90
27425;BME280;15244;49.088;11.886;2022-11-13T16:33:23;96137.09;;;11.83;47.18
27425;BME280;15244;49.088;11.886;2022-11-13T16:38:47;96140.50;;;11.66;47.03
27425;BME280;15244;49.088;11.886;2022-11-13T16:44:10;96138.06;;;11.54;47.33
27425;BME280;15244;49.088;11.886;2022-11-13T16:49:32;96139.13;;;11.42;47.57
27425;BME280;15244;49.088;11.886;2022-11-13T16:54:57;96135.13;;;11.25;47.44
27425;BME280;15244;49.088;11.886;2022-11-13T17:00:27;96126.78;;;11.07;47.52
27425;BME280;15244;49.088;11.886;2022-11-13T17:05:52;96126.31;;;10.98;47.83
27425;BME280;15244;49.088;11.886;2022-11-13T17:11:14;96121.97;;;10.93;47.79
27425;BME280;15244;49.088;11.886;2022-11-13T17:16:34;96118.38;;;10.82;47.90
27425;BME280;15244;49.088;11.886;2022-11-13T17:22:01;96113.63;;;10.75;48.06
27425;BME280;15244;49.088;11.886;2022-11-13T17:27:28;96109.69;;;10.69;48.38
27425;BME280;15244;49.088;11.886;2022-11-13T17:32:48;96103.38;;;10.61;47.85
27425;BME280;15244;49.088;11.886;2022-11-13T17:38:12;96104.50;;;10.60;47.90
27425;BME280;15244;49.088;11.886;2022-11-13T17:43:36;96092.41;;;10.58;48.58
27425;BME280;15244;49.088;11.886;2022-11-13T17:49:04;96097.84;;;10.54;48.08
27425;BME280;15244;49.088;11.886;2022-11-13T17:54:33;96087.69;;;10.51;48.77
27425;BME280;15244;49.088;11.886;2022-11-13T17:59:58;96086.84;;;10.44;48.26
27425;BME280;15244;49.088;11.886;2022-11-13T18:05:18;96089.09;;;10.38;48.50
27425;BME280;15244;49.088;11.886;2022-11-13T18:10:44;96080.06;;;10.30;48.71
27425;BME280;15244;49.088;11.886;2022-11-13T18:16:10;96090.06;;;10.23;48.82
27425;BME280;15244;49.088;11.886;2022-11-13T18:21:37;96094.66;;;10.15;48.79
27425;BME280;15244;49.088;11.886;2022-11-13T18:27:02;96081.69;;;10.05;49.16
27425;BME280;15244;49.088;11.886;2022-11-13T18:32:22;96081.97;;;9.96;49.15
27425;BME280;15244;49.088;11.886;2022-11-13T18:37:47;96065.97;;;9.91;49.34
27425;BME280;15244;49.088;11.886;2022-11-13T18:43:14;96073.69;;;9.85;49.59
27425;BME280;15244;49.088;11.886;2022-11-13T18:48:41;96069.75;;;9.83;49.90
27425;BME280;15244;49.088;11.886;2022-11-13T18:54:02;96060.44;;;9.84;49.85
27425;BME280;15244;49.088;11.886;2022-11-13T18:59:28;96072.47;;;9.83;49.92
27425;BME280;15244;49.088;11.886;2022-11-13T19:04:52;96060.41;;;9.80;50.06
27425;BME280;15244;49.088;11.886;2022-11-13T19:10:12;96054.13;;;9.80;49.76
27425;BME280;15244;49.088;11.886;2022-11-13T19:15:37;96052.59;;;9.79;49.99
27425;BME280;15244;49.088;11.886;2022-11-13T19:21:08;96054.09;;;9.76;50.17
27425;BME280;15244;49.088;11.886;2022-11-13T19:26:40;96049.41;;;9.73;50.58
27425;BME280;15244;49.088;11.886;2022-11-13T19:32:06;96056.72;;;9.69;49.90
27425;BME280;15244;49.088;11.886;2022-11-13T19:37:29;96046.94;;;9.64;50.37
27425;BME280;15244;49.088;11.886;2022-11-13T19:42:58;96047.34;;;9.63;50.31
27425;BME280;15244;49.088;11.886;2022-11-13T19:48:24;96057.03;;;9.60;50.77
27425;BME280;15244;49.088;11.886;2022-11-13T19:53:56;96048.44;;;9.58;50.56
27425;BME280;15244;49.088;11.886;2022-11-13T19:59:19;96052.31;;;9.57;50.66
27425;BME280;15244;49.088;11.886;2022-11-13T20:04:41;96056.16;;;9.52;50.86
27425;BME280;15244;49.088;11.886;2022-11-13T20:10:05;96056.91;;;9.53;50.96
27425;BME280;15244;49.088;11.886;2022-11-13T20:15:31;96057.66;;;9.50;50.77
27425;BME280;15244;49.088;11.886;2022-11-13T20:20:58;96051.03;;;9.47;50.74
27425;BME280;15244;49.088;11.886;2022-11-13T20:26:23;96048.28;;;9.47;51.37
27425;BME280;15244;49.088;11.886;2022-11-13T20:31:46;96037.75;;;9.46;51.05
27425;BME280;15244;49.088;11.886;2022-11-13T20:37:11;96024.13;;;9.42;50.92
27425;BME280;15244;49.088;11.886;2022-11-13T20:42:36;96030.28;;;9.39;50.96
27425;BME280;15244;49.088;11.886;2022-11-13T20:48:16;96021.31;;;9.35;50.57
27425;BME280;15244;49.088;11.886;2022-11-13T20:53:48;96025.16;;;9.34;51.09
27425;BME280;15244;49.088;11.886;2022-11-13T20:59:11;96012.28;;;9.31;51.24
27425;BME280;15244;49.088;11.886;2022-11-13T21:04:36;96012.69;;;9.29;51.26
27425;BME280;15244;49.088;11.886;2022-11-13T21:09:59;96020.41;;;9.27;51.03
27425;BME280;15244;49.088;11.886;2022-11-13T21:15:24;96014.91;;;9.24;51.52
27425;BME280;15244;49.088;11.886;2022-11-13T21:20:50;96005.56;;;9.21;51.10
27425;BME280;15244;49.088;11.886;2022-11-13T21:26:18;96011.72;;;9.18;51.37
27425;BME280;15244;49.088;11.886;2022-11-13T21:31:39;96019.47;;;9.16;51.45
27425;BME280;15244;49.088;11.886;2022-11-13T21:37:01;96014.41;;;9.15;51.69
27425;BME280;15244;49.088;11.886;2022-11-13T21:42:24;96003.09;;;9.13;51.89
27425;BME280;15244;49.088;11.886;2022-11-13T21:47:48;95998.03;;;9.11;51.55
27425;BME280;15244;49.088;11.886;2022-11-13T21:53:10;95996.47;;;9.10;51.47
27425;BME280;15244;49.088;11.886;2022-11-13T21:58:35;95989.03;;;9.07;51.82
27425;BME280;15244;49.088;11.886;2022-11-13T22:04:07;95981.59;;;9.04;51.93
27425;BME280;15244;49.088;11.886;2022-11-13T22:09:33;95978.47;;;9.02;52.06
27425;BME280;15244;49.088;11.886;2022-11-13T22:14:59;95975.69;;;8.98;52.14
27425;BME280;15244;49.088;11.886;2022-11-13T22:20:22;95977.59;;;8.94;51.96
27425;BME280;15244;49.088;11.886;2022-11-13T22:25:45;95976.00;;;8.93;52.08
27425;BME280;15244;49.088;11.886;2022-11-13T22:31:15;95974.47;;;8.92;52.22
27425;BME280;15244;49.088;11.886;2022-11-13T22:36:38;95974.81;;;8.90;52.22
27425;BME280;15244;49.088;11.886;2022-11-13T22:42:00;95957.72;;;8.90;52.21
27425;BME280;15244;49.088;11.886;2022-11-13T22:47:25;95955.00;;;8.90;52.19
27425;BME280;15244;49.088;11.886;2022-11-13T22:52:48;95958.06;;;8.88;52.42
27425;BME280;15244;49.088;11.886;2022-11-13T22:58:13;95951.84;;;8.88;52.30
27425;BME280;15244;49.088;11.886;2022-11-13T23:03:42;95943.28;;;8.86;52.21
27425;BME280;15244;49.088;11.886;2022-11-13T23:09:07;95948.31;;;8.84;52.29
27425;BME280;15244;49.088;11.886;2022-11-13T23:14:28;95928.47;;;8.83;52.28
27425;BME280;15244;49.088;11.886;2022-11-13T23:19:58;95923.78;;;8.80;52.20
27425;BME280;15244;49.088;11.886;2022-11-13T23:25:21;95922.22;;;8.79;52.29
27425;BME280;15244;49.088;11.886;2022-11-13T23:30:51;95912.44;;;8.75;52.16
27425;BME280;15244;49.088;11.886;2022-11-13T23:36:14;95916.69;;;8.72;52.33
27425;BME280;15244;49.088;11.886;2022-11-13T23:41:44;95914.72;;;8.69;52.11
27425;BME280;15244;49.088;11.886;2022-11-13T23:47:04;95908.50;;;8.68;52.34
27425;BME280;15244;49.088;11.886;2022-11-13T23:52:29;95905.34;;;8.66;52.50
27425;BME280;15244;49.088;11.886;2022-11-13T23:57:57;95898.72;;;8.64;52.35
